ACT        NSW        VIC        QLD        SA        WA        TAS        NT        INFO        CALC            by VK5ZD

Past Date/Time: (dd/mm/yyyy hh:mm or blank for current data)    

  Atmospheric Gas Attenuation - ITU Rec 676-11   --------------- dB/100km ---------------
WA Stations Date Time Temp RH % AH g/m3 Dew Point Wind Direction Speed kph Gust kph Barometer mB Rainfall Since 9am 24GHz 47GHz 76GHz 122GHz 134GHz 241GHz
Albany 09/05 09:00 14 65 7.84 7.5 13 1013.1 0 18.0 24.6 36.7 96.2 88.3 303.0
Albany Airport 09/05 16:50 17.1 65 9.46 10.5 22 28 1027.1 0 21.2 26.8 42.2 110.6 106.5 367.3
Badgingarra 09/05 16:50 21.9 25 4.82 1 9 11 1013.1 0 11.3 18.5 23.3 60.5 47.0 159.2
Barimunya 09/05 16:50 21.5 17 3.21 -4.5 24 30 1013.1 0 8.0 16.6 18.6 47.9 31.2 103.4
Barrow Island 09/05 16:50 25.4 42 9.89 11.6 20 22 1015.1 0 21.7 24.7 39.1 102.7 100.0 345.6
Bedout Island 09/05 16:50 25.4 40 9.42 10.8 15 17 1014.5 0 20.8 24.0 37.4 98.2 94.5 326.2
Bencubbin 09/05 09:00 15 58 7.44 6.9 7 1026.8 0 17.1 24.2 35.3 92.2 83.1 284.9
Beverley 09/05 09:00 14.6 72 9.01 9.6 15 1013.1 0 20.4 26.3 41.0 107.8 102.8 353.9
Bickley 09/05 16:50 18.5 40 6.33 4.7 11 13 1013.1 0 14.6 21.3 29.3 76.6 65.7 224.4
Boolgeeda 09/05 16:50 24.1 14 3.06 -4.9 15 19 1015.5 0 7.6 16.1 17.7 45.4 28.9 95.6
Bridgetown 09/05 16:50 18.6 41 6.52 5.1 2 2 1025.7 0 15.0 21.9 30.4 79.3 68.5 234.2
Brookton 09/05 09:00 13.1 61 6.96 5.8 9 1013.1 0 16.1 23.5 33.7 88.2 78.1 267.2
Broome 09/05 16:50 28.3 39 10.78 13 6 7 1013.2 0 23.4 25.1 40.8 107.2 106.6 368.9
Bunbury 09/05 16:50 20.6 44 7.87 7.9 4 4 1025.2 0 17.7 23.4 34.4 90.0 82.4 283.1
Busselton Airport 09/05 16:50 19.3 49 8.13 8.3 7 9 1025 0 18.3 24.1 35.9 94.0 86.9 298.7
Cape Leeuwin 09/05 16:50 20.4 61 10.79 12.6 11 11 1025.1 0 23.9 27.9 45.6 119.8 119.0 411.5
Cape Naturaliste 09/05 16:50 19.2 56 9.23 10.2 17 19 1025.1 0 20.6 25.8 40.1 105.2 100.6 346.9
Carnarvon 09/05 16:50 24.7 51 11.54 13.9 22 26 1017.9 0 25.2 27.5 45.7 120.3 121.4 420.3
Christmas Creek 09/05 16:50 23.1 16 3.31 -3.8 24 32 1018 0 8.2 16.6 18.7 48.0 31.7 105.3
Christmas Island 09/05 16:50 27 84 21.62 24.1 20 24 1009.1 0 46.3 43.9 87.4 231.3 258.8 899.1
Cocos Island 09/05 16:50 29.3 83 24.24 26.1 7 9 1009.4 0 51.6 47.9 97.5 258.4 292.6 1017.1
Collie East 09/05 16:50 19.9 35 6.01 4 6 7 1013.1 0 13.9 20.5 27.8 72.4 61.0 208.1
Coondewanna 09/05 16:50 21 15 2.75 -6.6 24 26 1013.1 0 7.0 16.2 17.4 44.6 27.0 88.4
Cunderdin Airport 09/05 16:50 20.4 31 5.48 2.7 17 20 1025.5 0 12.7 20.1 26.3 68.3 55.5 188.7
Curtin 09/05 16:50 28.4 33 9.17 10.6 11 13 1012.1 0 20.1 22.8 35.1 92.1 88.1 304.0
Cygnet Bay 09/05 09:00 25.6 58 13.81 16.7 1014.8 0 29.9 30.7 54.0 142.3 148.9 516.5
Dalwallinu 09/05 16:50 20.7 23 4.14 -1.2 19 20 1024.1 0 9.9 18.2 21.9 56.5 41.2 138.2
Doongan 09/05 09:00 24 43 9.35 10.7 32 1014.8 0 20.7 24.3 37.8 99.2 95.3 329.0
Dwellingup 09/05 16:50 18.5 42 6.64 5.4 9 11 1025.8 0 15.2 22.1 30.9 80.5 70.0 239.4
Eliwana Airport 09/05 16:50 24.9 13 2.98 -4.8 19 20 1013.1 0 7.4 15.8 17.3 44.3 27.9 91.9
Esperance 09/05 16:50 16 82 11.17 12.9 20 22 1030.5 0 24.9 30.2 50.1 131.6 131.9 455.7
Esperance Airport 09/05 16:50 15.4 84 11.04 12.7 20 24 1030.3 0 24.7 30.1 49.9 131.1 131.1 452.7
Eucla 09/05 16:50 15.1 92 11.87 13.8 15 19 1030.1 0 26.5 31.7 53.7 141.4 143.6 496.4
Eyre 09/05 09:00 15.1 93 12 14 2 1034.1 0.7 26.8 32.1 54.5 143.4 145.9 504.6
Fitzroy Crossing 09/05 16:50 27.5 31 8.2 8.9 1013.3 0 18.1 21.7 32.3 84.6 78.5 270.2
Forrest 09/05 16:50 17.6 57 8.55 9 15 17 1029 0 19.3 25.3 38.4 100.6 94.3 324.6
Fortescue Dave Forrest 09/05 16:50 22.5 18 3.6 -2.6 28 33 1017.4 0 8.8 17.1 19.6 50.6 34.7 115.8
Garden Island 09/05 16:50 21.4 40 7.5 7.3 0 0 1024.9 0 16.9 22.6 32.8 85.6 77.3 265.2
Geraldton Airport 09/05 16:50 26.2 17 4.19 -0.8 15 19 1021.2 0 9.9 17.2 20.6 53.2 38.9 130.9
Gerangamete (Cfa) 09/05 18:40 12 93 9.91 10.9 15 17 1013.1 0 22.5 28.6 46.2 121.6 118.9 409.9
Giles* 09/05 18:20 19.4 21 3.5 -3.5 19 22 1021.7 0 8.6 17.6 20.2 52.0 35.2 117.0
Gingin Airport 09/05 16:50 23.1 23 4.75 0.9 13 13 1024.3 0 11.1 18.6 23.1 59.9 46.1 156.0
Golden Grove 09/05 16:50 21.3 21 3.91 -1.9 15 20 1013.1 0 9.4 17.5 20.7 53.5 38.1 127.8
Gooseberry Hill 09/05 16:50 20.3 29 5.1 1.7 17 19 1013.1 0 11.9 19.2 24.7 64.1 50.9 172.6
Gudai-Darri Mine 09/05 16:50 23.1 16 3.31 -4 28 33 1013.1 0 8.2 16.5 18.6 47.7 31.6 104.8
Halls Creek 09/05 18:20 24 37 8.05 8.4 7 7 1014.1 0 18.0 22.4 33.2 87.0 80.3 276.2
Hopetoun North 09/05 16:50 16.9 70 10.07 11.4 22 28 1028.4 0.2 22.5 27.9 44.8 117.6 115.1 397.0
Hyden 09/05 09:00 10.1 96 9.08 9.5 4 1013.1 0 20.8 27.8 43.7 115.0 110.0 378.4
Iron Bridge Mine 09/05 16:50 26.4 15 3.73 -2.5 20 24 1013.1 0 8.9 16.4 19.0 49.0 34.2 114.5
Jacup 09/05 16:50 17.1 49 7.13 6.3 17 20 1027.8 0 16.3 23.2 33.3 86.9 77.2 264.5
Jandakot 09/05 16:50 21.8 33 6.33 4.8 9 9 1024.7 0 14.5 20.9 28.6 74.5 63.7 217.7
Jarrahwood 09/05 09:00 14 62 7.48 6.8 11 1013.1 0 17.2 24.1 35.3 92.5 83.7 287.0
Jurien Bay 09/05 09:00 16.6 49 6.92 6 28 1025.6 0 15.9 23.0 32.6 85.1 75.0 256.8
Kalbarri 09/05 09:00 20.7 29 5.22 2 26 1022.9 0 12.2 19.6 25.3 65.6 52.4 177.8
Kalgoorlie-Boulder 09/05 16:50 17.3 47 6.92 5.9 17 20 1027.6 0 15.9 22.9 32.4 84.6 74.5 255.0
Kalumburu 09/05 18:20 28.7 45 12.72 15.6 7 9 1011.6 0 27.4 27.8 47.6 125.4 129.1 447.8
Karijini North 09/05 16:50 23.3 13 2.72 -6.6 22 26 1016.8 0 6.9 15.9 16.9 43.4 26.1 85.4
Karnet 09/05 15:00 20.5 27 4.8 0.9 7 1013.1 0 11.3 18.8 23.7 61.4 47.6 161.1
Karratha 09/05 16:50 28 15 4.08 -1 24 28 1015 0 9.6 16.6 19.7 50.8 36.9 123.9
Katanning Rs 09/05 16:50 18.5 38 6.01 3.9 11 13 1026.8 0 13.9 21.3 28.7 74.8 62.8 214.2
Koolan Island / Koolan Central 09/05 16:50 26.9 49 12.54 15.4 6 6 1013.1 0 27.2 28.2 48.0 126.6 130.0 450.6
Kununurra Airport 09/05 18:20 28 39 10.61 12.8 11 13 1012.7 0 23.1 24.9 40.3 106.0 104.9 363.1
Lake Grace 09/05 16:50 19.3 37 6.14 4.3 15 17 1027 0 14.2 21.3 28.9 75.2 63.7 217.3
Lancelin (Defence) 09/05 16:50 22.2 49 9.62 11.2 11 13 1023.2 0 21.3 25.5 40.0 105.0 101.5 350.3
Laverton 09/05 16:50 18.1 39 6.03 3.9 24 28 1025.8 0 14.0 21.4 28.9 75.2 63.3 215.8
Learmonth 09/05 16:50 26.5 39 9.76 11.4 13 13 1016.3 0 21.4 24.2 38.2 100.2 97.2 336.0
Legendre Island 09/05 16:50 25.7 39 9.34 10.7 22 26 1015.1 0 20.6 23.8 37.0 97.1 93.2 321.9
Leinster 09/05 16:50 18.9 28 4.54 0 20 24 1023.4 0 10.8 19.1 23.6 61.1 46.3 156.0
Leonora Airport 09/05 16:50 19.1 34 5.57 2.9 15 17 1025.2 0 13.0 20.5 27.0 70.1 57.4 195.1
Lombadina 09/05 16:50 27.3 48 12.56 15.6 6 7 1013.1 0 27.2 28.1 47.9 126.2 129.6 449.2
Mandora 09/05 16:50 28.7 24 6.78 6.1 9 13 1014.2 0 15.1 19.7 27.4 71.5 62.6 214.6
Mandurah 09/05 16:50 21.5 41 7.73 7.7 2 4 1024.8 0 17.4 22.9 33.5 87.6 79.8 274.2
Manjimup 09/05 16:50 16.8 47 6.72 5.4 6 6 1026.1 0 15.5 22.7 31.8 83.0 72.5 247.9
Marble Bar 09/05 16:50 25.9 15 3.63 -2.7 17 19 1016 0 8.7 16.5 18.9 48.8 33.6 112.2
Mardie 09/05 16:50 29.6 17 5.05 1.9 15 20 1014.6 0 11.6 17.4 22.0 57.1 45.1 153.2
Meekatharra 09/05 16:50 21.4 19 3.56 -3.1 32 37 1021 0 8.7 17.3 19.9 51.2 34.9 116.3
Millendon (Swan Valley) 09/05 16:50 22.5 26 5.19 2 0 0 1024.4 0 12.1 19.2 24.7 64.0 51.0 173.1
Morawa Airport 09/05 16:50 22.9 20 4.09 -1.3 19 22 1023 0 9.8 17.7 21.2 54.6 39.6 132.8
Mount Keith 09/05 16:50 19 25 4.07 -1.4 20 24 1013.1 0 9.8 18.1 21.8 56.3 40.9 137.1
Mount Magnet Airport 09/05 16:50 21.1 21 3.87 -2 15 19 1022.6 0 9.4 17.8 20.9 54.0 38.2 127.8
Mullewa 09/05 09:00 17.3 37 5.45 2.6 26 1013.1 0 12.8 20.3 26.7 69.6 56.7 192.6
Munglinup West 09/05 16:50 16.6 57 8.05 8 15 17 1029.1 0 18.3 24.8 37.0 96.8 89.2 306.4
Murchison 09/05 09:00 19 65 10.59 12.4 19 1024.5 0 23.5 28.0 45.5 119.7 118.5 409.3
Narrogin 09/05 09:00 13.5 61 7.14 6.3 4 1013.1 0 16.5 23.7 34.2 89.6 79.9 273.7
Newdegate 09/05 16:50 18.3 43 6.72 5.5 19 20 1026.9 0 15.4 22.3 31.3 81.6 71.2 243.5
Newman Airport 09/05 16:50 21.9 13 2.51 -7.7 22 28 1018.7 0 6.5 15.9 16.7 42.6 24.6 80.0
Norseman Airport 09/05 16:50 19 43 7.01 6.1 13 13 1028.3 0 16.0 22.6 32.1 83.8 74.0 253.6
North Island 09/05 16:50 23.9 46 9.95 11.6 15 17 1021.1 0 21.9 25.4 40.3 105.8 103.2 356.3
Northam 09/05 09:00 14.2 60 7.33 6.6 4 1013.1 0 16.9 23.8 34.6 90.7 81.6 279.7
Onslow Airport 09/05 16:50 26.3 38 9.41 10.9 17 19 1016 0 20.7 23.8 37.0 97.1 93.4 322.6
Paraburdoo 09/05 16:50 24 13 2.83 -6.1 26 30 1016.7 0 7.1 15.9 17.1 43.8 26.9 88.3
Pardoo 09/05 09:00 24 100 21.76 24 41 1019 0 46.9 46.3 92.4 244.5 273.6 950.3
Paynes Find 09/05 09:00 15.4 50 6.57 5.2 4 1027.7 0 15.2 22.8 31.9 83.2 72.0 246.1
Pearce 09/05 16:50 23.1 21 4.34 -0.4 11 15 1024.1 0 10.3 18.0 21.9 56.5 42.0 141.4
Perth 09/05 16:50 21.7 30 5.72 3.4 9 15 1024.6 0 13.2 20.1 26.6 69.2 57.2 194.6
Perth Airport 09/05 16:50 22.3 28 5.53 2.9 17 17 1024.6 0 12.8 19.7 25.8 67.1 54.7 186.1
Pingelly 09/05 09:00 13 58 6.58 4.9 6 1013.1 0 15.3 22.9 32.3 84.4 73.4 250.9
Port Hedland 09/05 16:50 27.8 16 4.3 -0.3 17 20 1014.9 0 10.1 16.9 20.3 52.6 39.0 131.4
Portable Btsa (Dfes) 09/05 16:40 27.7 15 4.01 -0.8 11 15 1013.1 0 9.5 16.5 19.5 50.4 36.3 121.8
Portable Btsb (Dfes) 09/05 16:40 19.9 27 4.64 0.3 11 15 1013.1 0 11.0 18.7 23.3 60.5 46.3 156.4
Portable Btsd (Dfes) 09/05 16:40 18.3 40 6.25 4.6 15 19 1013.1 0 14.4 21.2 29.1 76.0 64.9 221.7
Portable Btsf (Dfes) 09/05 16:00 20.3 20 3.52 -2.9 30 37 1013.1 0 8.7 17.2 19.8 51.0 34.7 115.6
Portable Btsh (Dfes) 09/05 16:40 15.1 87 11.22 13 9 11 1013.1 0.4 25.1 29.9 50.0 131.6 132.4 457.4
Portable Btsj (Dfes) 09/05 16:40 23.1 28 5.79 4 7 9 1013.1 0 13.3 19.5 26.0 67.8 56.3 192.1
Portable Btsk (Dfes) 09/05 16:30 29.1 19 5.49 3 9 13 1013.1 0 12.5 18.0 23.4 60.8 49.5 168.7
Portable Btsl (Dfes) 09/05 16:40 17.6 53 7.95 8.1 19 28 1013.1 0 18.0 23.8 35.5 93.0 85.7 294.4
Portable Btsm (Dfes) 09/05 16:40 22 18 3.49 -3.6 6 7 1013.1 0 8.6 16.9 19.3 49.8 33.7 112.3
Portable Btsn (Dfes) 09/05 16:40 20.1 21 3.65 -2.5 15 19 1013.1 0 8.9 17.4 20.2 52.2 36.1 120.4
Portable Btso (Dfes) 09/05 16:40 20.6 34 6.08 4.4 4 6 1013.1 0 14.0 20.4 27.8 72.4 61.2 209.0
Red Rocks Point 09/05 16:50 16.5 83 11.65 13.6 26 30 1030.2 1 25.9 30.8 51.8 136.3 137.8 476.5
Rocky Gully South 09/05 16:50 18.4 43 6.76 5.6 13 13 1013.1 0 15.5 21.9 30.9 80.7 70.7 242.0
Roebourne Airport 09/05 16:50 27.6 16 4.26 -0.5 28 30 1015.6 0 10.0 16.9 20.3 52.5 38.7 130.5
Rottnest Island 09/05 16:50 20.5 45 8.01 8.2 11 13 1024.4 0 18.0 23.6 34.9 91.4 84.1 289.1
Salmon Gums Rs 09/05 16:50 15.9 62 8.4 8.6 17 20 1013.1 0 19.1 25.0 38.0 99.6 93.2 320.6
Shannon 09/05 16:50 16.4 62 8.65 9.1 6 6 1013.1 0 19.6 25.2 38.7 101.6 95.8 329.7
Shark Bay Airport 09/05 16:50 26.5 18 4.51 0.3 15 17 1019 0 10.5 17.5 21.4 55.3 41.8 141.0
Solomon Airport 09/05 16:50 23.6 13 2.76 -6.5 22 26 1016.1 0 7.0 15.8 17.0 43.5 26.3 86.3
Southern Cross Airport 09/05 16:50 19.1 38 6.23 4.5 20 24 1026.6 0 14.3 21.4 29.3 76.2 64.8 221.3
Swanbourne 09/05 16:50 21.9 42 8.1 8.4 6 6 1013.1 0 18.2 22.9 34.2 89.6 82.9 285.2
Telfer 09/05 16:50 23.8 23 4.95 1.4 24 30 1016.9 0 11.5 18.4 23.3 60.5 47.4 160.8
Thevenard Island 09/05 16:30 26.4 37 9.21 10.5 17 19 1015.8 0 20.3 23.5 36.3 95.1 91.0 314.1
Troughton Island 09/05 18:20 28 57 15.5 18.7 30 33 1011.8 0 33.3 32.5 59.0 155.8 166.3 577.5
Truscott 09/05 18:20 27.9 52 14.06 17.4 7 7 1011.3 0 30.3 30.2 53.2 140.5 147.4 511.6
Walpole North 09/05 16:50 19 54 8.8 9.5 4 6 1025.8 0 19.7 25.2 38.6 101.1 95.5 329.0
Wandering 09/05 16:50 19.3 32 5.31 2.2 11 13 1013.1 0 12.4 19.7 25.7 66.7 53.8 182.6
Warburton 09/05 18:20 19.2 23 3.79 -2.4 22 26 1023.1 0 9.3 18.1 21.2 54.6 38.3 127.9
West Angelas 09/05 16:50 21 16 2.93 -5.7 20 26 1018.3 0 7.4 16.5 18.0 46.3 28.9 94.9
West Musgrave Airport 09/05 16:50 19.8 24 4.1 -1.3 24 28 1013.1 0 9.9 18.0 21.7 56.1 40.8 136.9
Wiluna Airport 09/05 16:50 20.4 22 3.89 -2 26 30 1022.2 0 9.4 17.9 21.2 54.5 38.7 129.5
Windy Harbour 09/05 09:00 14 61 7.36 6.7 19 1029 0 16.9 24.5 35.5 92.8 83.3 285.4
Witchcliffe West 09/05 16:50 18.1 55 8.5 8.9 7 9 1025.3 0 19.2 25.0 37.8 99.1 92.8 319.4
Wyndham Airport 09/05 18:20 29.2 34 9.87 11.7 11 13 1012.3 0 21.5 23.6 37.1 97.6 95.0 328.3
Yampi Sound (Defence) 09/05 16:50 28.7 39 11.02 13.7 6 7 1013.1 0 23.9 25.4 41.4 109.0 108.8 376.8
York 09/05 09:00 12.7 68 7.57 6.9 4 1029.7 0 17.4 25.2 36.9 96.6 87.5 299.9

Last Refresh: 09-May-2026 18:21:58

Bureau of Meteorology